sensor_id;sensor_type;location;lat;lon;timestamp;temperature;humidity
20372;DHT22;42924;37.564;-122.048;2022-09-01T00:00:31;27.50;99.90
20372;DHT22;42924;37.564;-122.048;2022-09-01T00:03:02;27.40;99.90
20372;DHT22;42924;37.564;-122.048;2022-09-01T00:05:33;27.50;99.90
20372;DHT22;42924;37.564;-122.048;2022-09-01T00:08:04;27.40;99.90
20372;DHT22;42924;37.564;-122.048;2022-09-01T00:10:36;27.40;99.90
20372;DHT22;42924;37.564;-122.048;2022-09-01T00:13:08;27.40;99.90
20372;DHT22;42924;37.564;-122.048;2022-09-01T00:15:39;27.30;99.90
20372;DHT22;42924;37.564;-122.048;2022-09-01T00:18:10;27.30;99.90
20372;DHT22;42924;37.564;-122.048;2022-09-01T00:20:42;27.20;99.90
20372;DHT22;42924;37.564;-122.048;2022-09-01T00:23:13;27.10;99.90
20372;DHT22;42924;37.564;-122.048;2022-09-01T00:25:44;27.10;99.90
20372;DHT22;42924;37.564;-122.048;2022-09-01T00:28:15;27.10;99.90
20372;DHT22;42924;37.564;-122.048;2022-09-01T00:30:46;27.10;99.90
20372;DHT22;42924;37.564;-122.048;2022-09-01T00:33:20;27.00;99.90
20372;DHT22;42924;37.564;-122.048;2022-09-01T00:35:51;27.00;99.90
20372;DHT22;42924;37.564;-122.048;2022-09-01T00:38:23;26.90;99.90
20372;DHT22;42924;37.564;-122.048;2022-09-01T00:40:54;26.80;99.90
20372;DHT22;42924;37.564;-122.048;2022-09-01T00:46:14;26.80;99.90
20372;DHT22;42924;37.564;-122.048;2022-09-01T00:49:00;26.80;99.90
20372;DHT22;42924;37.564;-122.048;2022-09-01T00:51:32;26.70;99.90
20372;DHT22;42924;37.564;-122.048;2022-09-01T00:54:06;26.70;99.90
20372;DHT22;42924;37.564;-122.048;2022-09-01T00:56:39;26.70;99.90
20372;DHT22;42924;37.564;-122.048;2022-09-01T00:59:20;26.60;99.90
20372;DHT22;42924;37.564;-122.048;2022-09-01T01:01:54;26.60;99.90
20372;DHT22;42924;37.564;-122.048;2022-09-01T01:04:26;26.50;99.90
20372;DHT22;42924;37.564;-122.048;2022-09-01T01:07:01;26.50;99.90
20372;DHT22;42924;37.564;-122.048;2022-09-01T01:09:38;26.50;99.90
20372;DHT22;42924;37.564;-122.048;2022-09-01T01:12:09;26.50;99.90
20372;DHT22;42924;37.564;-122.048;2022-09-01T01:14:57;26.40;99.90
20372;DHT22;42924;37.564;-122.048;2022-09-01T01:17:27;26.40;99.90
20372;DHT22;42924;37.564;-122.048;2022-09-01T01:20:00;26.50;99.90
20372;DHT22;42924;37.564;-122.048;2022-09-01T01:22:59;26.40;99.90
20372;DHT22;42924;37.564;-122.048;2022-09-01T01:25:44;26.20;99.90
20372;DHT22;42924;37.564;-122.048;2022-09-01T01:28:18;26.40;99.90
20372;DHT22;42924;37.564;-122.048;2022-09-01T01:31:04;26.30;99.90
20372;DHT22;42924;37.564;-122.048;2022-09-01T01:33:43;26.30;99.90
20372;DHT22;42924;37.564;-122.048;2022-09-01T01:36:39;26.20;99.90
20372;DHT22;42924;37.564;-122.048;2022-09-01T01:39:20;26.10;99.90
20372;DHT22;42924;37.564;-122.048;2022-09-01T01:42:00;25.80;99.90
20372;DHT22;42924;37.564;-122.048;2022-09-01T01:44:32;25.70;99.90
20372;DHT22;42924;37.564;-122.048;2022-09-01T01:47:10;25.50;99.90
20372;DHT22;42924;37.564;-122.048;2022-09-01T01:49:45;25.10;99.90
20372;DHT22;42924;37.564;-122.048;2022-09-01T01:52:20;24.80;99.90
20372;DHT22;42924;37.564;-122.048;2022-09-01T01:54:54;24.70;99.90
20372;DHT22;42924;37.564;-122.048;2022-09-01T01:57:33;24.70;99.90
20372;DHT22;42924;37.564;-122.048;2022-09-01T02:00:19;24.50;99.90
20372;DHT22;42924;37.564;-122.048;2022-09-01T02:02:58;24.40;99.90
20372;DHT22;42924;37.564;-122.048;2022-09-01T02:05:32;24.30;99.90
20372;DHT22;42924;37.564;-122.048;2022-09-01T02:08:08;24.20;99.90
20372;DHT22;42924;37.564;-122.048;2022-09-01T02:10:44;24.20;99.90
20372;DHT22;42924;37.564;-122.048;2022-09-01T02:13:27;24.10;99.90
20372;DHT22;42924;37.564;-122.048;2022-09-01T02:16:06;24.20;99.90
20372;DHT22;42924;37.564;-122.048;2022-09-01T02:18:45;24.20;99.90
20372;DHT22;42924;37.564;-122.048;2022-09-01T02:21:24;24.00;99.90
20372;DHT22;42924;37.564;-122.048;2022-09-01T02:24:07;24.00;99.90
20372;DHT22;42924;37.564;-122.048;2022-09-01T02:26:42;24.10;99.90
20372;DHT22;42924;37.564;-122.048;2022-09-01T02:29:18;24.00;99.90
20372;DHT22;42924;37.564;-122.048;2022-09-01T02:31:52;24.10;99.90
20372;DHT22;42924;37.564;-122.048;2022-09-01T02:34:24;23.90;99.90
20372;DHT22;42924;37.564;-122.048;2022-09-01T02:36:59;23.70;99.90
20372;DHT22;42924;37.564;-122.048;2022-09-01T02:39:31;23.70;99.90
20372;DHT22;42924;37.564;-122.048;2022-09-01T02:42:02;23.90;99.90
20372;DHT22;42924;37.564;-122.048;2022-09-01T02:44:34;23.90;99.90
20372;DHT22;42924;37.564;-122.048;2022-09-01T02:47:08;23.80;99.90
20372;DHT22;42924;37.564;-122.048;2022-09-01T02:49:39;23.70;99.90
20372;DHT22;42924;37.564;-122.048;2022-09-01T02:52:11;23.70;99.90
20372;DHT22;42924;37.564;-122.048;2022-09-01T02:54:44;23.70;99.90
20372;DHT22;42924;37.564;-122.048;2022-09-01T02:57:16;23.60;99.90
20372;DHT22;42924;37.564;-122.048;2022-09-01T02:59:53;23.60;99.90
20372;DHT22;42924;37.564;-122.048;2022-09-01T03:02:31;23.60;99.90
20372;DHT22;42924;37.564;-122.048;2022-09-01T03:05:04;23.60;99.90
20372;DHT22;42924;37.564;-122.048;2022-09-01T03:07:35;23.50;99.90
20372;DHT22;42924;37.564;-122.048;2022-09-01T03:10:06;23.60;99.90
20372;DHT22;42924;37.564;-122.048;2022-09-01T03:12:38;23.60;99.90
20372;DHT22;42924;37.564;-122.048;2022-09-01T03:15:10;23.80;99.90
20372;DHT22;42924;37.564;-122.048;2022-09-01T03:17:43;23.90;99.90
20372;DHT22;42924;37.564;-122.048;2022-09-01T03:20:15;23.80;99.90
20372;DHT22;42924;37.564;-122.048;2022-09-01T03:22:49;23.80;99.90
20372;DHT22;42924;37.564;-122.048;2022-09-01T03:25:22;23.70;99.90
20372;DHT22;42924;37.564;-122.048;2022-09-01T03:27:55;23.70;99.90
20372;DHT22;42924;37.564;-122.048;2022-09-01T03:30:35;23.90;99.90
20372;DHT22;42924;37.564;-122.048;2022-09-01T03:33:10;24.10;99.90
20372;DHT22;42924;37.564;-122.048;2022-09-01T03:35:41;24.10;99.90
20372;DHT22;42924;37.564;-122.048;2022-09-01T03:38:14;24.20;99.90
20372;DHT22;42924;37.564;-122.048;2022-09-01T03:40:57;24.10;99.90
20372;DHT22;42924;37.564;-122.048;2022-09-01T03:43:32;24.10;99.90
20372;DHT22;42924;37.564;-122.048;2022-09-01T03:46:04;24.10;99.90
20372;DHT22;42924;37.564;-122.048;2022-09-01T03:48:38;24.10;99.90
20372;DHT22;42924;37.564;-122.048;2022-09-01T03:51:09;24.00;99.90
20372;DHT22;42924;37.564;-122.048;2022-09-01T03:53:44;23.80;99.90
20372;DHT22;42924;37.564;-122.048;2022-09-01T03:56:15;23.80;99.90
20372;DHT22;42924;37.564;-122.048;2022-09-01T03:58:47;23.70;99.90
20372;DHT22;42924;37.564;-122.048;2022-09-01T04:01:22;23.70;99.90
20372;DHT22;42924;37.564;-122.048;2022-09-01T04:03:53;23.80;99.90
20372;DHT22;42924;37.564;-122.048;2022-09-01T04:06:30;23.90;99.90
20372;DHT22;42924;37.564;-122.048;2022-09-01T04:09:02;23.70;99.90
20372;DHT22;42924;37.564;-122.048;2022-09-01T04:11:36;23.70;99.90
20372;DHT22;42924;37.564;-122.048;2022-09-01T04:14:15;23.90;99.90
20372;DHT22;42924;37.564;-122.048;2022-09-01T04:16:51;23.90;99.90
20372;DHT22;42924;37.564;-122.048;2022-09-01T04:19:39;23.90;99.90
20372;DHT22;42924;37.564;-122.048;2022-09-01T04:22:11;23.90;99.90
20372;DHT22;42924;37.564;-122.048;2022-09-01T04:24:43;23.70;99.90
20372;DHT22;42924;37.564;-122.048;2022-09-01T04:27:16;23.80;99.90
20372;DHT22;42924;37.564;-122.048;2022-09-01T04:29:54;23.90;99.90
20372;DHT22;42924;37.564;-122.048;2022-09-01T04:32:31;23.80;99.90
20372;DHT22;42924;37.564;-122.048;2022-09-01T04:35:05;23.70;99.90
20372;DHT22;42924;37.564;-122.048;2022-09-01T04:37:36;23.70;99.90
20372;DHT22;42924;37.564;-122.048;2022-09-01T04:40:09;23.70;99.90
20372;DHT22;42924;37.564;-122.048;2022-09-01T04:42:42;23.60;99.90
20372;DHT22;42924;37.564;-122.048;2022-09-01T04:45:13;23.60;99.90
20372;DHT22;42924;37.564;-122.048;2022-09-01T04:47:49;23.50;99.90
20372;DHT22;42924;37.564;-122.048;2022-09-01T04:50:20;23.50;99.90
20372;DHT22;42924;37.564;-122.048;2022-09-01T04:53:11;23.60;99.90
20372;DHT22;42924;37.564;-122.048;2022-09-01T04:55:46;23.60;99.90
20372;DHT22;42924;37.564;-122.048;2022-09-01T04:58:20;23.50;99.90
20372;DHT22;42924;37.564;-122.048;2022-09-01T05:00:50;23.50;99.90
20372;DHT22;42924;37.564;-122.048;2022-09-01T05:03:21;23.50;99.90
20372;DHT22;42924;37.564;-122.048;2022-09-01T05:06:17;23.50;99.90
20372;DHT22;42924;37.564;-122.048;2022-09-01T05:08:51;23.50;99.90
20372;DHT22;42924;37.564;-122.048;2022-09-01T05:11:39;23.40;99.90
20372;DHT22;42924;37.564;-122.048;2022-09-01T05:14:21;23.30;99.90
20372;DHT22;42924;37.564;-122.048;2022-09-01T05:16:57;23.40;99.90
20372;DHT22;42924;37.564;-122.048;2022-09-01T05:19:29;23.40;99.90
20372;DHT22;42924;37.564;-122.048;2022-09-01T05:22:01;23.30;99.90
20372;DHT22;42924;37.564;-122.048;2022-09-01T05:24:33;23.30;99.90
20372;DHT22;42924;37.564;-122.048;2022-09-01T05:27:11;23.40;99.90
20372;DHT22;42924;37.564;-122.048;2022-09-01T05:29:45;23.40;99.90
20372;DHT22;42924;37.564;-122.048;2022-09-01T05:32:18;23.40;99.90
20372;DHT22;42924;37.564;-122.048;2022-09-01T05:34:54;23.50;99.90
20372;DHT22;42924;37.564;-122.048;2022-09-01T05:37:26;23.40;99.90
20372;DHT22;42924;37.564;-122.048;2022-09-01T05:40:02;23.30;99.90
20372;DHT22;42924;37.564;-122.048;2022-09-01T05:42:32;23.30;99.90
20372;DHT22;42924;37.564;-122.048;2022-09-01T05:45:03;23.20;99.90
20372;DHT22;42924;37.564;-122.048;2022-09-01T05:47:35;23.50;99.90
20372;DHT22;42924;37.564;-122.048;2022-09-01T05:50:11;23.50;99.90
20372;DHT22;42924;37.564;-122.048;2022-09-01T05:52:44;23.40;99.90
20372;DHT22;42924;37.564;-122.048;2022-09-01T05:55:16;23.30;99.90
20372;DHT22;42924;37.564;-122.048;2022-09-01T05:57:48;23.20;99.90
20372;DHT22;42924;37.564;-122.048;2022-09-01T06:00:19;23.20;99.90
20372;DHT22;42924;37.564;-122.048;2022-09-01T06:02:52;23.30;99.90
20372;DHT22;42924;37.564;-122.048;2022-09-01T06:05:26;23.50;99.90
20372;DHT22;42924;37.564;-122.048;2022-09-01T06:07:58;23.50;99.90
20372;DHT22;42924;37.564;-122.048;2022-09-01T06:10:30;23.40;99.90
20372;DHT22;42924;37.564;-122.048;2022-09-01T06:13:06;23.30;99.90
20372;DHT22;42924;37.564;-122.048;2022-09-01T06:15:40;23.30;99.90
20372;DHT22;42924;37.564;-122.048;2022-09-01T06:18:15;23.20;99.90
20372;DHT22;42924;37.564;-122.048;2022-09-01T06:20:55;23.20;99.90
20372;DHT22;42924;37.564;-122.048;2022-09-01T06:23:25;23.20;99.90
20372;DHT22;42924;37.564;-122.048;2022-09-01T06:25:56;23.10;99.90
20372;DHT22;42924;37.564;-122.048;2022-09-01T06:28:30;23.20;99.90
20372;DHT22;42924;37.564;-122.048;2022-09-01T06:31:05;23.20;99.90
20372;DHT22;42924;37.564;-122.048;2022-09-01T06:33:38;23.30;99.90
20372;DHT22;42924;37.564;-122.048;2022-09-01T06:36:09;23.50;99.90
20372;DHT22;42924;37.564;-122.048;2022-09-01T06:38:43;23.40;99.90
20372;DHT22;42924;37.564;-122.048;2022-09-01T06:41:16;23.40;99.90
20372;DHT22;42924;37.564;-122.048;2022-09-01T06:43:48;23.30;99.90
20372;DHT22;42924;37.564;-122.048;2022-09-01T06:46:22;23.20;99.90
20372;DHT22;42924;37.564;-122.048;2022-09-01T06:49:01;23.20;99.90
20372;DHT22;42924;37.564;-122.048;2022-09-01T06:51:32;23.20;99.90
20372;DHT22;42924;37.564;-122.048;2022-09-01T06:54:04;23.30;99.90
20372;DHT22;42924;37.564;-122.048;2022-09-01T06:56:44;23.20;99.90
20372;DHT22;42924;37.564;-122.048;2022-09-01T06:59:21;23.20;99.90
20372;DHT22;42924;37.564;-122.048;2022-09-01T07:01:54;23.40;99.90
20372;DHT22;42924;37.564;-122.048;2022-09-01T07:04:51;23.40;99.90
20372;DHT22;42924;37.564;-122.048;2022-09-01T07:07:24;23.30;99.90
20372;DHT22;42924;37.564;-122.048;2022-09-01T07:10:43;23.30;99.90
20372;DHT22;42924;37.564;-122.048;2022-09-01T07:13:39;23.30;99.90
20372;DHT22;42924;37.564;-122.048;2022-09-01T07:16:34;23.20;99.90
20372;DHT22;42924;37.564;-122.048;2022-09-01T07:19:21;23.20;99.90
20372;DHT22;42924;37.564;-122.048;2022-09-01T07:22:13;23.40;99.90
20372;DHT22;42924;37.564;-122.048;2022-09-01T07:25:05;23.50;99.90
20372;DHT22;42924;37.564;-122.048;2022-09-01T07:27:57;23.50;99.90
20372;DHT22;42924;37.564;-122.048;2022-09-01T07:30:29;23.50;99.90
20372;DHT22;42924;37.564;-122.048;2022-09-01T07:33:02;23.50;99.90
20372;DHT22;42924;37.564;-122.048;2022-09-01T07:36:02;23.40;99.90
20372;DHT22;42924;37.564;-122.048;2022-09-01T07:38:53;23.50;99.90
20372;DHT22;42924;37.564;-122.048;2022-09-01T07:41:57;23.50;99.90
20372;DHT22;42924;37.564;-122.048;2022-09-01T07:45:08;23.50;99.90
20372;DHT22;42924;37.564;-122.048;2022-09-01T07:47:58;23.50;99.90
20372;DHT22;42924;37.564;-122.048;2022-09-01T07:50:42;23.40;99.90
20372;DHT22;42924;37.564;-122.048;2022-09-01T07:53:35;23.30;99.90
20372;DHT22;42924;37.564;-122.048;2022-09-01T07:56:17;23.30;99.90
20372;DHT22;42924;37.564;-122.048;2022-09-01T07:58:51;23.50;99.90
20372;DHT22;42924;37.564;-122.048;2022-09-01T08:01:26;23.50;99.90
20372;DHT22;42924;37.564;-122.048;2022-09-01T08:03:59;23.50;99.90
20372;DHT22;42924;37.564;-122.048;2022-09-01T08:06:30;23.40;99.90
20372;DHT22;42924;37.564;-122.048;2022-09-01T08:09:09;23.30;99.90
20372;DHT22;42924;37.564;-122.048;2022-09-01T08:12:04;23.20;99.90
20372;DHT22;42924;37.564;-122.048;2022-09-01T08:14:52;23.20;99.90
20372;DHT22;42924;37.564;-122.048;2022-09-01T08:17:44;23.30;99.90
20372;DHT22;42924;37.564;-122.048;2022-09-01T08:20:22;23.40;99.90
20372;DHT22;42924;37.564;-122.048;2022-09-01T08:22:58;23.30;99.90
20372;DHT22;42924;37.564;-122.048;2022-09-01T08:25:35;23.30;99.90
20372;DHT22;42924;37.564;-122.048;2022-09-01T08:28:06;23.30;99.90
20372;DHT22;42924;37.564;-122.048;2022-09-01T08:30:41;23.30;99.90
20372;DHT22;42924;37.564;-122.048;2022-09-01T08:33:21;23.30;99.90
20372;DHT22;42924;37.564;-122.048;2022-09-01T08:35:52;23.30;99.90
20372;DHT22;42924;37.564;-122.048;2022-09-01T08:38:26;23.50;99.90
20372;DHT22;42924;37.564;-122.048;2022-09-01T08:41:00;23.50;99.90
20372;DHT22;42924;37.564;-122.048;2022-09-01T08:46:36;23.50;99.90
20372;DHT22;42924;37.564;-122.048;2022-09-01T08:49:28;23.40;99.90
20372;DHT22;42924;37.564;-122.048;2022-09-01T08:52:42;23.30;99.90
20372;DHT22;42924;37.564;-122.048;2022-09-01T08:55:45;23.30;99.90
20372;DHT22;42924;37.564;-122.048;2022-09-01T08:58:17;23.20;99.90
20372;DHT22;42924;37.564;-122.048;2022-09-01T09:01:58;23.20;99.90
20372;DHT22;42924;37.564;-122.048;2022-09-01T09:07:11;23.30;99.90
20372;DHT22;42924;37.564;-122.048;2022-09-01T09:10:02;23.30;99.90
20372;DHT22;42924;37.564;-122.048;2022-09-01T09:16:15;23.30;99.90
20372;DHT22;42924;37.564;-122.048;2022-09-01T09:18:50;23.40;99.90
20372;DHT22;42924;37.564;-122.048;2022-09-01T09:21:34;23.20;99.90
20372;DHT22;42924;37.564;-122.048;2022-09-01T09:26:56;23.20;99.90
20372;DHT22;42924;37.564;-122.048;2022-09-01T09:29:28;23.10;99.90
20372;DHT22;42924;37.564;-122.048;2022-09-01T09:32:05;23.10;99.90
20372;DHT22;42924;37.564;-122.048;2022-09-01T09:37:46;23.10;99.90
20372;DHT22;42924;37.564;-122.048;2022-09-01T09:40:22;23.00;99.90
20372;DHT22;42924;37.564;-122.048;2022-09-01T09:45:33;23.20;99.90
20372;DHT22;42924;37.564;-122.048;2022-09-01T09:48:30;23.20;99.90
20372;DHT22;42924;37.564;-122.048;2022-09-01T09:51:16;23.10;99.90
20372;DHT22;42924;37.564;-122.048;2022-09-01T09:53:50;23.00;99.90
20372;DHT22;42924;37.564;-122.048;2022-09-01T09:56:23;23.10;99.90
20372;DHT22;42924;37.564;-122.048;2022-09-01T09:58:54;23.10;99.90
20372;DHT22;42924;37.564;-122.048;2022-09-01T10:01:30;23.00;99.90
20372;DHT22;42924;37.564;-122.048;2022-09-01T10:04:02;23.00;99.90
20372;DHT22;42924;37.564;-122.048;2022-09-01T10:06:39;23.00;99.90
20372;DHT22;42924;37.564;-122.048;2022-09-01T10:11:53;23.00;99.90
20372;DHT22;42924;37.564;-122.048;2022-09-01T10:14:30;23.00;99.90
20372;DHT22;42924;37.564;-122.048;2022-09-01T10:17:28;23.00;99.90
20372;DHT22;42924;37.564;-122.048;2022-09-01T10:20:04;23.10;99.90
20372;DHT22;42924;37.564;-122.048;2022-09-01T10:22:39;23.10;99.90
20372;DHT22;42924;37.564;-122.048;2022-09-01T10:25:25;23.20;99.90
20372;DHT22;42924;37.564;-122.048;2022-09-01T10:28:17;23.30;99.90
20372;DHT22;42924;37.564;-122.048;2022-09-01T10:30:51;23.40;99.90
20372;DHT22;42924;37.564;-122.048;2022-09-01T10:33:23;23.40;99.90
20372;DHT22;42924;37.564;-122.048;2022-09-01T10:35:55;23.30;99.90
20372;DHT22;42924;37.564;-122.048;2022-09-01T10:38:27;23.10;99.90
20372;DHT22;42924;37.564;-122.048;2022-09-01T10:40:59;23.10;99.90
20372;DHT22;42924;37.564;-122.048;2022-09-01T10:43:46;23.10;99.90
20372;DHT22;42924;37.564;-122.048;2022-09-01T10:48:57;22.90;99.90
20372;DHT22;42924;37.564;-122.048;2022-09-01T10:54:06;23.20;99.90
20372;DHT22;42924;37.564;-122.048;2022-09-01T10:56:47;23.20;99.90
20372;DHT22;42924;37.564;-122.048;2022-09-01T11:07:32;23.00;99.90
20372;DHT22;42924;37.564;-122.048;2022-09-01T11:10:39;23.00;99.90
20372;DHT22;42924;37.564;-122.048;2022-09-01T11:15:55;23.20;99.90
20372;DHT22;42924;37.564;-122.048;2022-09-01T11:22:07;23.20;99.90
20372;DHT22;42924;37.564;-122.048;2022-09-01T11:27:54;23.30;99.90
20372;DHT22;42924;37.564;-122.048;2022-09-01T11:30:08;23.30;99.90
20372;DHT22;42924;37.564;-122.048;2022-09-01T11:32:41;23.40;99.90
20372;DHT22;42924;37.564;-122.048;2022-09-01T11:35:18;23.30;99.90
20372;DHT22;42924;37.564;-122.048;2022-09-01T11:37:51;23.20;99.90
20372;DHT22;42924;37.564;-122.048;2022-09-01T11:40:30;23.30;99.90
20372;DHT22;42924;37.564;-122.048;2022-09-01T11:43:09;23.30;99.90
20372;DHT22;42924;37.564;-122.048;2022-09-01T11:46:26;23.40;99.90
20372;DHT22;42924;37.564;-122.048;2022-09-01T11:49:05;23.40;99.90
20372;DHT22;42924;37.564;-122.048;2022-09-01T11:51:45;23.30;99.90
20372;DHT22;42924;37.564;-122.048;2022-09-01T11:54:17;23.20;99.90
20372;DHT22;42924;37.564;-122.048;2022-09-01T11:56:50;23.20;99.90
20372;DHT22;42924;37.564;-122.048;2022-09-01T11:59:34;23.20;99.90
20372;DHT22;42924;37.564;-122.048;2022-09-01T12:02:06;23.20;99.90
20372;DHT22;42924;37.564;-122.048;2022-09-01T12:04:36;23.20;99.90
20372;DHT22;42924;37.564;-122.048;2022-09-01T12:09:57;23.10;99.90
20372;DHT22;42924;37.564;-122.048;2022-09-01T12:12:37;23.10;99.90
20372;DHT22;42924;37.564;-122.048;2022-09-01T12:15:24;23.10;99.90
20372;DHT22;42924;37.564;-122.048;2022-09-01T12:18:17;23.10;99.90
20372;DHT22;42924;37.564;-122.048;2022-09-01T12:20:50;23.10;99.90
20372;DHT22;42924;37.564;-122.048;2022-09-01T12:23:34;23.00;99.90
20372;DHT22;42924;37.564;-122.048;2022-09-01T12:26:26;23.00;99.90
20372;DHT22;42924;37.564;-122.048;2022-09-01T12:29:00;23.10;99.90
20372;DHT22;42924;37.564;-122.048;2022-09-01T12:31:32;23.20;99.90
20372;DHT22;42924;37.564;-122.048;2022-09-01T12:34:04;23.20;99.90
20372;DHT22;42924;37.564;-122.048;2022-09-01T12:36:37;23.20;99.90
20372;DHT22;42924;37.564;-122.048;2022-09-01T12:42:21;23.20;99.90
20372;DHT22;42924;37.564;-122.048;2022-09-01T12:45:12;23.30;99.90
20372;DHT22;42924;37.564;-122.048;2022-09-01T12:47:45;23.20;99.90
20372;DHT22;42924;37.564;-122.048;2022-09-01T12:52:50;23.30;99.90
20372;DHT22;42924;37.564;-122.048;2022-09-01T12:55:36;23.40;99.90
20372;DHT22;42924;37.564;-122.048;2022-09-01T12:58:25;23.40;99.90
20372;DHT22;42924;37.564;-122.048;2022-09-01T13:01:04;23.50;99.90
20372;DHT22;42924;37.564;-122.048;2022-09-01T13:04:05;23.50;99.90
20372;DHT22;42924;37.564;-122.048;2022-09-01T13:06:38;23.50;99.90
20372;DHT22;42924;37.564;-122.048;2022-09-01T13:09:09;23.40;99.90
20372;DHT22;42924;37.564;-122.048;2022-09-01T13:11:43;23.40;99.90
20372;DHT22;42924;37.564;-122.048;2022-09-01T13:14:35;23.50;99.90
20372;DHT22;42924;37.564;-122.048;2022-09-01T13:17:06;23.60;99.90
20372;DHT22;42924;37.564;-122.048;2022-09-01T13:19:47;23.60;99.90
20372;DHT22;42924;37.564;-122.048;2022-09-01T13:22:24;23.60;99.90
20372;DHT22;42924;37.564;-122.048;2022-09-01T13:25:00;23.60;99.90
20372;DHT22;42924;37.564;-122.048;2022-09-01T13:27:30;23.60;99.90
20372;DHT22;42924;37.564;-122.048;2022-09-01T13:30:01;23.70;99.90
20372;DHT22;42924;37.564;-122.048;2022-09-01T13:32:32;23.70;99.90
20372;DHT22;42924;37.564;-122.048;2022-09-01T13:35:05;23.80;99.90
20372;DHT22;42924;37.564;-122.048;2022-09-01T13:37:37;23.70;99.90
20372;DHT22;42924;37.564;-122.048;2022-09-01T13:40:07;23.70;99.90
20372;DHT22;42924;37.564;-122.048;2022-09-01T13:42:48;23.70;99.90
20372;DHT22;42924;37.564;-122.048;2022-09-01T13:45:22;23.70;99.90
20372;DHT22;42924;37.564;-122.048;2022-09-01T13:47:55;23.80;99.90
20372;DHT22;42924;37.564;-122.048;2022-09-01T13:50:48;23.90;99.90
20372;DHT22;42924;37.564;-122.048;2022-09-01T13:53:40;23.90;99.90
20372;DHT22;42924;37.564;-122.048;2022-09-01T13:56:12;24.00;99.90
20372;DHT22;42924;37.564;-122.048;2022-09-01T13:58:44;24.00;99.90
20372;DHT22;42924;37.564;-122.048;2022-09-01T14:01:15;24.10;99.90
20372;DHT22;42924;37.564;-122.048;2022-09-01T14:03:46;24.10;99.90
20372;DHT22;42924;37.564;-122.048;2022-09-01T14:06:19;24.20;99.90
20372;DHT22;42924;37.564;-122.048;2022-09-01T14:08:50;24.30;99.90
20372;DHT22;42924;37.564;-122.048;2022-09-01T14:11:21;24.30;99.90
20372;DHT22;42924;37.564;-122.048;2022-09-01T14:13:53;24.40;99.90
20372;DHT22;42924;37.564;-122.048;2022-09-01T14:16:26;24.40;99.90
20372;DHT22;42924;37.564;-122.048;2022-09-01T14:18:58;24.40;99.90
20372;DHT22;42924;37.564;-122.048;2022-09-01T14:21:29;24.50;99.90
20372;DHT22;42924;37.564;-122.048;2022-09-01T14:24:00;24.50;99.90
20372;DHT22;42924;37.564;-122.048;2022-09-01T14:26:30;24.60;99.90
20372;DHT22;42924;37.564;-122.048;2022-09-01T14:29:01;24.70;99.90
20372;DHT22;42924;37.564;-122.048;2022-09-01T14:31:31;24.80;99.90
20372;DHT22;42924;37.564;-122.048;2022-09-01T14:34:03;24.80;99.90
20372;DHT22;42924;37.564;-122.048;2022-09-01T14:36:35;24.80;99.90
20372;DHT22;42924;37.564;-122.048;2022-09-01T14:39:06;24.90;99.90
20372;DHT22;42924;37.564;-122.048;2022-09-01T14:41:36;25.00;99.90
20372;DHT22;42924;37.564;-122.048;2022-09-01T14:44:08;25.00;99.90
20372;DHT22;42924;37.564;-122.048;2022-09-01T14:46:40;25.10;99.90
20372;DHT22;42924;37.564;-122.048;2022-09-01T14:49:11;25.20;99.90
20372;DHT22;42924;37.564;-122.048;2022-09-01T14:51:50;25.20;99.90
20372;DHT22;42924;37.564;-122.048;2022-09-01T14:54:41;25.30;99.90
20372;DHT22;42924;37.564;-122.048;2022-09-01T14:57:13;25.40;99.90
20372;DHT22;42924;37.564;-122.048;2022-09-01T15:00:07;25.40;99.90
20372;DHT22;42924;37.564;-122.048;2022-09-01T15:02:44;25.50;99.90
20372;DHT22;42924;37.564;-122.048;2022-09-01T15:05:14;25.40;99.90
20372;DHT22;42924;37.564;-122.048;2022-09-01T15:07:45;25.60;99.90
20372;DHT22;42924;37.564;-122.048;2022-09-01T15:10:20;25.70;99.90
20372;DHT22;42924;37.564;-122.048;2022-09-01T15:12:57;25.70;99.90
20372;DHT22;42924;37.564;-122.048;2022-09-01T15:15:29;25.70;99.90
20372;DHT22;42924;37.564;-122.048;2022-09-01T15:18:00;25.70;99.90
20372;DHT22;42924;37.564;-122.048;2022-09-01T15:20:38;25.90;99.90
20372;DHT22;42924;37.564;-122.048;2022-09-01T15:23:18;26.00;99.90
20372;DHT22;42924;37.564;-122.048;2022-09-01T15:25:52;26.20;99.90
20372;DHT22;42924;37.564;-122.048;2022-09-01T15:28:27;26.20;99.90
20372;DHT22;42924;37.564;-122.048;2022-09-01T15:31:01;26.30;99.90
20372;DHT22;42924;37.564;-122.048;2022-09-01T15:33:34;26.40;99.90
20372;DHT22;42924;37.564;-122.048;2022-09-01T15:36:07;26.40;99.90
20372;DHT22;42924;37.564;-122.048;2022-09-01T15:38:39;26.50;99.90
20372;DHT22;42924;37.564;-122.048;2022-09-01T15:41:23;26.60;99.90
20372;DHT22;42924;37.564;-122.048;2022-09-01T15:43:54;26.70;99.90
20372;DHT22;42924;37.564;-122.048;2022-09-01T15:46:27;26.70;99.90
20372;DHT22;42924;37.564;-122.048;2022-09-01T15:49:04;26.50;99.90
20372;DHT22;42924;37.564;-122.048;2022-09-01T15:51:37;26.50;99.90
20372;DHT22;42924;37.564;-122.048;2022-09-01T15:54:10;26.70;99.90
20372;DHT22;42924;37.564;-122.048;2022-09-01T15:56:41;26.80;99.90
20372;DHT22;42924;37.564;-122.048;2022-09-01T15:59:14;26.90;99.90
20372;DHT22;42924;37.564;-122.048;2022-09-01T16:01:45;26.90;99.90
20372;DHT22;42924;37.564;-122.048;2022-09-01T16:04:16;27.00;99.90
20372;DHT22;42924;37.564;-122.048;2022-09-01T16:06:58;27.00;99.90
20372;DHT22;42924;37.564;-122.048;2022-09-01T16:09:29;26.90;99.90
20372;DHT22;42924;37.564;-122.048;2022-09-01T16:11:58;26.90;99.90
20372;DHT22;42924;37.564;-122.048;2022-09-01T16:14:29;26.80;99.90
20372;DHT22;42924;37.564;-122.048;2022-09-01T16:17:22;26.90;99.90
20372;DHT22;42924;37.564;-122.048;2022-09-01T16:20:22;27.10;99.90
20372;DHT22;42924;37.564;-122.048;2022-09-01T16:23:12;27.10;99.90
20372;DHT22;42924;37.564;-122.048;2022-09-01T16:25:45;27.10;99.90
20372;DHT22;42924;37.564;-122.048;2022-09-01T16:28:30;27.10;99.90
20372;DHT22;42924;37.564;-122.048;2022-09-01T16:31:16;27.20;99.90
20372;DHT22;42924;37.564;-122.048;2022-09-01T16:33:51;27.20;99.90
20372;DHT22;42924;37.564;-122.048;2022-09-01T16:47:11;27.60;99.90
20372;DHT22;42924;37.564;-122.048;2022-09-01T16:58:54;28.00;99.90
20372;DHT22;42924;37.564;-122.048;2022-09-01T17:04:31;27.90;99.90